Time;durP1;ratioP1;P1;durP2;ratioP2;P2;SDS_P1;SDS_P2;PMS_P1;PMS_P2;Temp;Humidity;BMP_temperature;BMP_pressure;BME280_temperature;BME280_humidity;BME280_pressure;Samples;Min_cycle;Max_cycle;Signal;HPM_P1;HPM_P2
2024/02/20 00:00:17;;;;;;;18.63;3.97;;;5.80;99.90;;;;;;5008426;28;20157;-70
2024/02/20 00:03:04;;;;;;;21.40;3.95;;;5.80;99.90;;;;;;5012345;28;20551;-70
2024/02/20 00:05:50;;;;;;;16.83;3.33;;;5.80;99.90;;;;;;5011881;28;20535;-69
2024/02/20 00:08:36;;;;;;;24.02;3.80;;;5.80;99.90;;;;;;5012068;28;20038;-70
2024/02/20 00:11:22;;;;;;;20.42;3.80;;;5.70;99.90;;;;;;5010985;28;20656;-68
2024/02/20 00:14:09;;;;;;;23.13;3.15;;;5.70;99.90;;;;;;5016695;28;20093;-68
2024/02/20 00:16:54;;;;;;;18.55;3.47;;;5.70;99.90;;;;;;5007101;28;20557;-69
2024/02/20 00:19:40;;;;;;;10.43;2.43;;;5.70;99.90;;;;;;5006790;28;20166;-69
2024/02/20 00:22:27;;;;;;;13.32;3.83;;;5.60;99.90;;;;;;4995088;28;20057;-70
2024/02/20 00:25:13;;;;;;;24.48;4.07;;;5.60;99.90;;;;;;4999308;28;20042;-68
2024/02/20 00:27:58;;;;;;;18.33;4.50;;;5.60;99.90;;;;;;4996500;28;20037;-69
2024/02/20 00:30:45;;;;;;;19.52;3.72;;;5.60;99.90;;;;;;4996209;28;20526;-70
2024/02/20 00:33:31;;;;;;;18.20;2.90;;;5.60;99.90;;;;;;4997923;28;20034;-70
2024/02/20 00:36:17;;;;;;;18.13;3.72;;;5.60;99.90;;;;;;4999283;28;20034;-69
2024/02/20 00:39:03;;;;;;;8.27;2.35;;;5.60;99.90;;;;;;4999855;28;20034;-68
2024/02/20 00:41:49;;;;;;;11.77;3.03;;;5.60;99.90;;;;;;5002050;28;20114;-69
2024/02/20 00:44:35;;;;;;;10.18;2.60;;;5.60;99.90;;;;;;4995502;28;20038;-69
2024/02/20 00:47:21;;;;;;;23.60;3.10;;;5.60;99.90;;;;;;4994849;28;20073;-69
2024/02/20 00:50:08;;;;;;;13.88;2.67;;;5.60;99.90;;;;;;5002550;28;20033;-69
2024/02/20 00:52:54;;;;;;;11.82;2.17;;;5.60;99.90;;;;;;5001686;28;20388;-69
2024/02/20 00:55:41;;;;;;;17.27;1.92;;;5.60;99.90;;;;;;4998590;28;20057;-70
2024/02/20 00:58:27;;;;;;;18.65;3.30;;;5.60;99.90;;;;;;5011553;28;20088;-69
2024/02/20 01:01:13;;;;;;;19.15;3.40;;;5.60;99.90;;;;;;4996070;28;20062;-69
2024/02/20 01:03:59;;;;;;;14.88;2.40;;;5.40;99.90;;;;;;5006056;28;20091;-69
2024/02/20 01:06:45;;;;;;;23.98;3.10;;;5.40;99.90;;;;;;5004363;28;20112;-69
2024/02/20 01:09:31;;;;;;;13.13;2.53;;;5.40;99.90;;;;;;5001590;28;20119;-68
2024/02/20 01:12:17;;;;;;;26.98;3.63;;;5.40;99.90;;;;;;5004240;28;20049;-69
2024/02/20 01:15:04;;;;;;;22.35;4.72;;;5.40;99.90;;;;;;4999973;28;20509;-69
2024/02/20 01:17:50;;;;;;;;;;;5.40;99.90;;;;;;4999890;28;20490;-69
2024/02/20 01:20:36;;;;;;;21.45;4.00;;;5.40;99.90;;;;;;4995066;28;20470;-67
2024/02/20 01:23:22;;;;;;;19.50;3.17;;;5.40;99.90;;;;;;4995223;28;20034;-68
2024/02/20 01:26:07;;;;;;;17.13;3.03;;;5.40;99.90;;;;;;4997724;28;20489;-68
2024/02/20 01:28:53;;;;;;;21.00;3.25;;;5.30;99.90;;;;;;4992319;28;20394;-69
2024/02/20 01:31:39;;;;;;;20.77;2.90;;;5.30;99.90;;;;;;4997731;28;20034;-69
2024/02/20 01:34:25;;;;;;;21.48;3.13;;;5.30;99.90;;;;;;4995286;28;20455;-68
2024/02/20 01:37:11;;;;;;;15.38;2.45;;;5.40;99.90;;;;;;4993199;28;20036;-68
2024/02/20 01:39:57;;;;;;;32.80;2.83;;;5.40;99.90;;;;;;4994547;28;20689;-69
2024/02/20 01:42:57;;;;;;;20.97;3.77;;;5.40;99.90;;;;;;5008603;28;20049;-69
2024/02/20 01:45:43;;;;;;;21.58;2.78;;;5.40;99.90;;;;;;4992050;28;20053;-69
2024/02/20 01:48:29;;;;;;;13.77;2.20;;;5.40;99.90;;;;;;4990522;28;20048;-69
2024/02/20 01:51:15;;;;;;;20.53;3.93;;;5.40;99.90;;;;;;4991915;28;20470;-69
2024/02/20 01:54:06;;;;;;;11.30;2.92;;;5.50;99.90;;;;;;4998204;28;20037;-69
2024/02/20 01:56:52;;;;;;;18.17;2.75;;;5.50;99.90;;;;;;4995890;28;20045;-68
2024/02/20 01:59:38;;;;;;;21.40;3.35;;;5.50;99.90;;;;;;4992207;28;20072;-69
2024/02/20 02:02:24;;;;;;;18.47;3.50;;;5.50;99.90;;;;;;5002313;28;20042;-69
2024/02/20 02:05:10;;;;;;;18.27;3.20;;;5.50;99.90;;;;;;4997285;28;20068;-69
2024/02/20 02:07:59;;;;;;;19.55;3.03;;;5.50;99.90;;;;;;4997699;28;20038;-69
2024/02/20 02:10:45;;;;;;;24.92;3.60;;;5.40;99.90;;;;;;4991681;28;20651;-68
2024/02/20 02:13:30;;;;;;;19.53;3.13;;;5.40;99.90;;;;;;4997249;28;20037;-69
2024/02/20 02:16:16;;;;;;;16.60;4.50;;;5.50;99.90;;;;;;4997093;28;20782;-68
2024/02/20 02:19:03;;;;;;;16.67;3.30;;;5.40;99.90;;;;;;4995979;28;20045;-68
2024/02/20 02:21:49;;;;;;;21.15;3.30;;;5.30;99.90;;;;;;4994263;28;20096;-68
2024/02/20 02:24:35;;;;;;;21.65;4.03;;;5.30;99.90;;;;;;4998243;28;20069;-68
2024/02/20 02:27:21;;;;;;;21.38;3.45;;;5.30;99.90;;;;;;4994206;28;20090;-71
2024/02/20 02:30:09;;;;;;;18.45;3.78;;;5.40;99.90;;;;;;5000382;28;20062;-70
2024/02/20 02:32:55;;;;;;;17.55;3.25;;;5.30;99.90;;;;;;4996749;28;20034;-69
2024/02/20 02:35:41;;;;;;;19.05;3.70;;;5.30;99.90;;;;;;4999766;28;20038;-69
2024/02/20 02:38:27;;;;;;;24.63;3.87;;;5.30;99.90;;;;;;4999032;28;20081;-69
2024/02/20 02:41:13;;;;;;;19.93;3.60;;;5.30;99.90;;;;;;5001711;28;20037;-69
2024/02/20 02:43:59;;;;;;;19.98;3.90;;;5.30;99.90;;;;;;5000419;28;20033;-69
2024/02/20 02:46:45;;;;;;;16.35;3.30;;;5.40;99.90;;;;;;4996638;28;20049;-71
2024/02/20 02:49:31;;;;;;;15.85;3.38;;;5.40;99.90;;;;;;4995095;28;20082;-70
2024/02/20 02:52:17;;;;;;;17.57;4.00;;;5.40;99.90;;;;;;4995173;28;20033;-70
2024/02/20 02:55:03;;;;;;;14.35;4.15;;;5.30;99.90;;;;;;4999701;28;20029;-71
2024/02/20 02:57:49;;;;;;;28.55;5.13;;;5.20;99.90;;;;;;4997413;28;20037;-70
2024/02/20 03:00:35;;;;;;;18.83;4.47;;;5.20;99.90;;;;;;4995411;28;20069;-70
2024/02/20 03:03:21;;;;;;;25.57;4.13;;;5.30;99.90;;;;;;4995695;28;20030;-71
2024/02/20 03:06:08;;;;;;;14.73;3.70;;;5.30;99.90;;;;;;4996700;28;20117;-70
2024/02/20 03:08:54;;;;;;;22.10;4.28;;;5.30;99.90;;;;;;4999851;28;20038;-70
2024/02/20 03:11:40;;;;;;;22.63;3.13;;;5.40;99.90;;;;;;4991143;28;20484;-70
2024/02/20 03:14:26;;;;;;;22.73;4.55;;;5.30;99.90;;;;;;4996963;28;20045;-68
2024/02/20 03:17:12;;;;;;;23.25;4.57;;;5.20;99.90;;;;;;4999030;28;20034;-69
2024/02/20 03:19:58;;;;;;;20.45;4.50;;;5.20;99.90;;;;;;5000544;28;20129;-69
2024/02/20 03:22:44;;;;;;;25.30;4.75;;;5.20;99.90;;;;;;4995241;28;20076;-67
2024/02/20 03:25:30;;;;;;;24.25;5.15;;;5.20;99.90;;;;;;5000705;28;20098;-69
2024/02/20 03:28:16;;;;;;;26.65;5.30;;;5.20;99.90;;;;;;5011565;28;20036;-69
2024/02/20 03:31:02;;;;;;;17.73;4.80;;;5.20;99.90;;;;;;4997617;28;20030;-69
2024/02/20 03:33:48;;;;;;;27.03;5.77;;;5.20;99.90;;;;;;4993195;28;20142;-69
2024/02/20 03:36:34;;;;;;;30.85;5.50;;;5.20;99.90;;;;;;4993884;28;20578;-68
2024/02/20 03:39:20;;;;;;;16.87;4.37;;;5.20;99.90;;;;;;4991433;28;20057;-67
2024/02/20 03:42:06;;;;;;;33.80;5.57;;;5.20;99.90;;;;;;5001560;28;20030;-68
2024/02/20 03:44:52;;;;;;;29.30;4.97;;;5.20;99.90;;;;;;4998287;28;20136;-69
2024/02/20 03:47:38;;;;;;;30.52;6.07;;;5.20;99.90;;;;;;4995470;28;20038;-70
2024/02/20 03:50:24;;;;;;;28.73;4.85;;;5.10;99.90;;;;;;4990668;28;20042;-69
2024/02/20 03:53:09;;;;;;;27.05;5.40;;;5.10;99.90;;;;;;4998318;28;20018;-69
2024/02/20 03:55:55;;;;;;;26.75;4.05;;;5.10;99.90;;;;;;5002816;28;20869;-70
2024/02/20 03:58:42;;;;;;;30.80;5.85;;;5.20;99.90;;;;;;4998260;28;20042;-70
2024/02/20 04:01:28;;;;;;;33.72;5.63;;;5.10;99.90;;;;;;4996979;28;20125;-69
2024/02/20 04:04:15;;;;;;;39.20;5.13;;;5.10;99.90;;;;;;5000310;28;20723;-69
2024/02/20 04:07:02;;;;;;;34.65;4.82;;;5.20;99.90;;;;;;4997997;28;20034;-68
2024/02/20 04:09:47;;;;;;;;;;;5.10;99.90;;;;;;5002299;28;20120;-70
2024/02/20 04:12:33;;;;;;;33.65;4.10;;;5.10;99.90;;;;;;4999139;28;19953;-69
2024/02/20 04:15:19;;;;;;;19.73;3.25;;;5.10;99.90;;;;;;4996444;28;20029;-69
2024/02/20 04:18:08;;;;;;;42.53;6.78;;;5.10;99.90;;;;;;5027421;28;20092;-70
2024/02/20 04:20:54;;;;;;;31.20;5.47;;;5.10;99.90;;;;;;5002397;28;21156;-70
2024/02/20 04:23:39;;;;;;;35.17;5.10;;;5.10;99.90;;;;;;4999377;28;20054;-70
2024/02/20 04:26:25;;;;;;;26.50;5.68;;;5.10;99.90;;;;;;5000696;28;20053;-69
2024/02/20 04:29:11;;;;;;;35.38;4.38;;;5.10;99.90;;;;;;4998609;28;20026;-70
2024/02/20 04:31:57;;;;;;;30.75;4.97;;;5.00;99.90;;;;;;5004054;28;20496;-69
2024/02/20 04:34:43;;;;;;;41.92;6.15;;;5.00;99.90;;;;;;4996679;28;20026;-70
2024/02/20 04:37:29;;;;;;;41.47;6.45;;;5.10;99.90;;;;;;5000555;28;20042;-69
2024/02/20 04:40:16;;;;;;;26.58;3.92;;;5.10;99.90;;;;;;5001875;28;20034;-69
2024/02/20 04:43:02;;;;;;;45.92;6.78;;;5.10;99.90;;;;;;5001911;28;20030;-70
2024/02/20 04:45:49;;;;;;;38.77;7.00;;;5.10;99.90;;;;;;5000788;28;20038;-69
2024/02/20 04:48:34;;;;;;;27.35;5.10;;;5.10;99.90;;;;;;5002103;28;20071;-70
2024/02/20 04:51:20;;;;;;;32.40;5.00;;;5.10;99.90;;;;;;4997947;28;20038;-69
2024/02/20 04:54:06;;;;;;;42.20;5.25;;;5.10;99.90;;;;;;4996199;28;20030;-70
2024/02/20 04:56:52;;;;;;;44.58;6.50;;;5.10;99.90;;;;;;5001069;28;20399;-70
2024/02/20 04:59:41;;;;;;;40.63;6.18;;;5.00;99.90;;;;;;4999617;28;20513;-70
2024/02/20 05:02:27;;;;;;;36.65;5.80;;;5.00;99.90;;;;;;4998955;28;20044;-70
2024/02/20 05:05:14;;;;;;;40.67;5.90;;;5.00;99.90;;;;;;4992550;28;20038;-70
2024/02/20 05:08:00;;;;;;;37.22;5.55;;;5.00;99.90;;;;;;4998735;28;20540;-69
2024/02/20 05:10:46;;;;;;;32.55;4.38;;;5.00;99.90;;;;;;4999740;28;20044;-69
2024/02/20 05:13:32;;;;;;;33.17;5.28;;;5.00;99.90;;;;;;5000363;28;20034;-70
2024/02/20 05:16:18;;;;;;;40.37;6.57;;;4.90;99.90;;;;;;4998188;28;20765;-70
2024/02/20 05:19:04;;;;;;;45.70;5.60;;;4.90;99.90;;;;;;4997165;28;20033;-71
2024/02/20 05:21:49;;;;;;;31.60;5.13;;;4.90;99.90;;;;;;5001026;28;20030;-69
2024/02/20 05:24:36;;;;;;;28.98;4.20;;;5.00;99.90;;;;;;4992666;28;20304;-69
2024/02/20 05:27:22;;;;;;;36.58;6.47;;;5.00;99.90;;;;;;4993027;28;20582;-69
2024/02/20 05:30:08;;;;;;;24.52;3.88;;;5.00;99.90;;;;;;4994299;28;20034;-69
2024/02/20 05:32:54;;;;;;;32.42;5.47;;;5.00;99.90;;;;;;4997510;28;21293;-69
2024/02/20 05:35:41;;;;;;;28.08;5.15;;;5.00;99.90;;;;;;4998479;28;20580;-69
2024/02/20 05:38:27;;;;;;;31.77;4.75;;;5.00;99.90;;;;;;4996590;28;20049;-69
2024/02/20 05:41:13;;;;;;;28.15;5.50;;;5.00;99.90;;;;;;4992927;28;20034;-69
2024/02/20 05:44:00;;;;;;;24.97;4.40;;;5.00;99.90;;;;;;4995945;28;20160;-69
2024/02/20 05:46:46;;;;;;;28.33;5.05;;;5.00;99.90;;;;;;4998209;28;20114;-71
2024/02/20 05:49:33;;;;;;;33.42;4.72;;;5.00;99.90;;;;;;4998122;28;20032;-69
2024/02/20 05:52:18;;;;;;;;;;;5.00;99.90;;;;;;5002471;28;20034;-70
2024/02/20 05:55:06;;;;;;;32.72;4.90;;;4.90;99.90;;;;;;4999227;28;19909;-70
2024/02/20 05:57:52;;;;;;;35.88;4.65;;;4.90;99.90;;;;;;5001634;28;20036;-69
2024/02/20 06:00:38;;;;;;;33.83;5.33;;;4.90;99.90;;;;;;4999412;28;20109;-70
2024/02/20 06:03:24;;;;;;;35.63;5.32;;;4.90;99.90;;;;;;4996700;28;20121;-69
2024/02/20 06:06:11;;;;;;;29.97;5.23;;;4.90;99.90;;;;;;4995789;28;20061;-70
2024/02/20 06:08:57;;;;;;;34.63;6.43;;;4.90;99.90;;;;;;4997737;28;20045;-70
2024/02/20 06:11:43;;;;;;;36.70;5.15;;;4.90;99.90;;;;;;5001650;28;20026;-70
2024/02/20 06:14:29;;;;;;;29.73;5.80;;;4.90;99.90;;;;;;4996209;28;20040;-69
2024/02/20 06:17:15;;;;;;;34.33;6.55;;;4.90;99.90;;;;;;4995802;28;20309;-69
2024/02/20 06:20:01;;;;;;;32.33;5.80;;;4.80;99.90;;;;;;4990385;28;20525;-69
2024/02/20 06:22:46;;;;;;;21.55;4.50;;;4.80;99.90;;;;;;5001185;28;20042;-68
2024/02/20 06:25:32;;;;;;;42.20;5.00;;;4.80;99.90;;;;;;4998406;28;20034;-69
2024/02/20 06:28:19;;;;;;;30.23;5.25;;;4.80;99.90;;;;;;4992618;28;20026;-68
2024/02/20 06:31:07;;;;;;;33.92;5.88;;;4.80;99.90;;;;;;4999640;28;20637;-67
2024/02/20 06:33:53;;;;;;;26.35;5.30;;;4.90;99.90;;;;;;4997664;28;20029;-68
2024/02/20 06:36:39;;;;;;;;;;;4.80;99.90;;;;;;4998356;28;20038;-68
2024/02/20 06:39:27;;;;;;;39.58;5.65;;;4.80;99.90;;;;;;5021275;28;19909;-68
2024/02/20 06:42:13;;;;;;;39.08;6.07;;;4.80;99.90;;;;;;4995272;28;20033;-68
2024/02/20 06:44:59;;;;;;;28.50;5.25;;;4.80;99.90;;;;;;4997229;28;20041;-69
2024/02/20 06:47:47;;;;;;;41.25;8.63;;;4.80;99.90;;;;;;5000516;28;20395;-69
2024/02/20 06:50:33;;;;;;;33.60;5.82;;;4.80;99.90;;;;;;4998698;28;20042;-68
2024/02/20 06:53:19;;;;;;;33.13;5.75;;;4.80;99.90;;;;;;4996509;28;20026;-68
2024/02/20 06:56:05;;;;;;;30.83;6.03;;;4.90;99.90;;;;;;4995602;28;20033;-68
2024/02/20 06:58:51;;;;;;;30.60;5.80;;;4.90;99.90;;;;;;4994865;28;20075;-68
2024/02/20 07:01:37;;;;;;;36.42;6.07;;;5.00;99.90;;;;;;4992977;28;20042;-68
2024/02/20 07:04:23;;;;;;;44.87;7.67;;;5.10;99.90;;;;;;4995603;28;20056;-68
2024/02/20 07:07:09;;;;;;;47.03;6.88;;;5.10;99.90;;;;;;4997306;28;20812;-69
2024/02/20 07:09:55;;;;;;;30.42;6.03;;;5.20;99.90;;;;;;5008304;28;20102;-68
2024/02/20 07:12:41;;;;;;;34.50;7.07;;;5.30;99.90;;;;;;4995762;28;20088;-68
2024/02/20 07:15:27;;;;;;;35.88;6.25;;;5.30;99.90;;;;;;4996673;28;20034;-68
2024/02/20 07:18:13;;;;;;;30.40;7.13;;;5.40;99.90;;;;;;4996211;28;20026;-68
2024/02/20 07:20:59;;;;;;;33.00;6.35;;;5.50;99.90;;;;;;4991703;28;20299;-69
2024/02/20 07:23:44;;;;;;;44.72;7.85;;;5.50;99.90;;;;;;4990435;28;20705;-69
2024/02/20 07:26:30;;;;;;;32.07;6.17;;;5.40;99.90;;;;;;4994568;28;20045;-71
2024/02/20 07:29:18;;;;;;;44.33;7.15;;;5.40;99.90;;;;;;4998563;28;20113;-69
2024/02/20 07:32:04;;;;;;;31.08;6.40;;;5.50;99.90;;;;;;5005428;28;20038;-69
2024/02/20 07:34:50;;;;;;;27.67;6.78;;;5.50;99.90;;;;;;4991557;28;20042;-69
2024/02/20 07:37:40;;;;;;;35.83;6.75;;;5.60;99.90;;;;;;5003348;28;20413;-69
2024/02/20 07:40:25;;;;;;;32.53;7.57;;;5.70;99.90;;;;;;5003909;28;20045;-69
2024/02/20 07:43:11;;;;;;;32.95;6.95;;;5.60;99.90;;;;;;4998020;28;20522;-68
2024/02/20 07:45:57;;;;;;;30.38;6.55;;;5.60;99.90;;;;;;5003680;28;20093;-68
2024/02/20 07:48:43;;;;;;;35.92;7.28;;;5.70;99.90;;;;;;4998886;28;20038;-67
2024/02/20 07:51:30;;;;;;;25.33;6.33;;;5.70;99.90;;;;;;5002587;28;20117;-67
2024/02/20 07:54:16;;;;;;;36.53;7.25;;;5.80;99.90;;;;;;4996951;28;20411;-66
2024/02/20 07:57:02;;;;;;;23.70;6.47;;;5.80;99.90;;;;;;5002618;28;20041;-67
2024/02/20 07:59:48;;;;;;;31.47;6.90;;;5.80;99.90;;;;;;4995509;28;20030;-67
2024/02/20 08:02:34;;;;;;;21.75;5.38;;;5.80;99.90;;;;;;5004954;28;20069;-67
2024/02/20 08:05:20;;;;;;;27.88;5.82;;;5.90;99.90;;;;;;5006520;28;20422;-67
2024/02/20 08:08:06;;;;;;;39.53;7.57;;;5.80;99.90;;;;;;4997011;28;20236;-67
2024/02/20 08:10:52;;;;;;;39.83;8.77;;;5.80;99.90;;;;;;4999373;28;20061;-68
2024/02/20 08:13:46;;;;;;;39.30;7.00;;;5.80;99.90;;;;;;4998627;28;20077;-68
2024/02/20 08:16:32;;;;;;;27.38;6.45;;;5.80;99.90;;;;;;5000769;28;20034;-67
2024/02/20 08:19:18;;;;;;;39.90;7.50;;;5.80;99.90;;;;;;4993360;28;20033;-70
2024/02/20 08:22:04;;;;;;;29.38;7.90;;;5.80;99.90;;;;;;4998593;28;20418;-68
2024/02/20 08:24:50;;;;;;;41.50;7.80;;;5.80;99.90;;;;;;4996187;28;20042;-68
2024/02/20 08:27:36;;;;;;;29.63;7.13;;;5.80;99.90;;;;;;5004363;28;20390;-68
2024/02/20 08:30:25;;;;;;;26.33;6.95;;;5.80;99.90;;;;;;4993435;28;20026;-69
2024/02/20 08:33:11;;;;;;;30.90;7.18;;;5.90;99.90;;;;;;4993633;28;20057;-68
2024/02/20 08:35:57;;;;;;;28.50;6.97;;;5.90;99.90;;;;;;5002463;28;20041;-68
2024/02/20 08:38:43;;;;;;;27.60;6.60;;;5.90;99.90;;;;;;4990138;28;20046;-68
2024/02/20 08:41:28;;;;;;;23.23;6.53;;;6.00;99.90;;;;;;5004822;28;20080;-68
2024/02/20 08:44:15;;;;;;;37.15;7.68;;;6.10;99.90;;;;;;4993882;28;20281;-70
2024/02/20 08:47:00;;;;;;;41.13;7.47;;;6.10;99.90;;;;;;4997567;28;20430;-67
2024/02/20 08:49:50;;;;;;;32.17;7.25;;;6.10;99.90;;;;;;4999260;28;20879;-69
2024/02/20 08:52:36;;;;;;;33.47;6.78;;;6.10;99.90;;;;;;5004916;28;20041;-65
2024/02/20 08:55:22;;;;;;;28.57;6.37;;;6.10;99.90;;;;;;4996877;28;20125;-68
2024/02/20 08:58:08;;;;;;;25.75;6.38;;;6.10;99.90;;;;;;4995444;28;20045;-65
2024/02/20 09:00:54;;;;;;;26.60;6.60;;;6.00;99.90;;;;;;4996353;28;20032;-65
2024/02/20 09:03:40;;;;;;;34.40;7.07;;;6.00;99.90;;;;;;4991288;28;20096;-63
2024/02/20 09:06:26;;;;;;;28.42;7.22;;;6.00;99.90;;;;;;5003591;28;20127;-65
2024/02/20 09:09:12;;;;;;;27.60;6.68;;;6.00;99.90;;;;;;5008114;28;20041;-65
2024/02/20 09:11:58;;;;;;;27.73;6.73;;;6.00;99.90;;;;;;5001194;28;20552;-66
2024/02/20 09:14:44;;;;;;;28.70;6.13;;;6.00;99.90;;;;;;4997870;28;20033;-65
2024/02/20 09:17:30;;;;;;;34.00;6.45;;;6.00;99.90;;;;;;4999237;28;20516;-66
2024/02/20 09:20:16;;;;;;;22.33;7.67;;;6.10;99.90;;;;;;4999605;28;20037;-66
2024/02/20 09:23:02;;;;;;;31.87;8.03;;;6.10;99.90;;;;;;4991436;28;20053;-67
2024/02/20 09:25:47;;;;;;;37.67;6.67;;;6.10;99.90;;;;;;4996082;28;20034;-66
2024/02/20 09:28:33;;;;;;;28.08;6.75;;;6.20;99.90;;;;;;4998173;28;20554;-66
2024/02/20 09:31:19;;;;;;;34.10;7.63;;;6.30;99.90;;;;;;4990726;28;20034;-66
2024/02/20 09:34:05;;;;;;;34.90;7.30;;;6.40;99.90;;;;;;4988561;28;20030;-67
2024/02/20 09:36:51;;;;;;;31.50;8.32;;;6.50;99.90;;;;;;4991327;28;20042;-66
2024/02/20 09:39:37;;;;;;;27.52;6.75;;;6.50;99.90;;;;;;4996566;28;20097;-66
2024/02/20 09:42:24;;;;;;;23.58;6.78;;;6.60;99.90;;;;;;4993613;28;20038;-66
2024/02/20 09:45:18;;;;;;;26.92;7.05;;;6.70;99.90;;;;;;4995111;28;20038;-66
2024/02/20 09:48:06;;;;;;;36.40;7.22;;;6.70;99.90;;;;;;4989325;28;20041;-65
2024/02/20 09:50:54;;;;;;;33.95;7.57;;;6.80;99.90;;;;;;4993841;28;20029;-66
2024/02/20 09:53:41;;;;;;;30.42;7.47;;;6.70;99.90;;;;;;4997734;28;20477;-66
2024/02/20 09:56:27;;;;;;;30.27;6.65;;;6.70;99.90;;;;;;4996437;28;20038;-66
2024/02/20 09:59:15;;;;;;;26.90;7.25;;;6.80;99.90;;;;;;4996563;28;20041;-66
2024/02/20 10:02:02;;;;;;;21.17;6.00;;;6.80;99.90;;;;;;4996141;28;20050;-66
2024/02/20 10:04:48;;;;;;;36.42;7.10;;;6.90;99.90;;;;;;4996196;28;20578;-66
2024/02/20 10:07:38;;;;;;;28.77;6.85;;;7.00;99.90;;;;;;4996793;28;20077;-66
2024/02/20 10:10:26;;;;;;;28.42;6.82;;;7.20;99.90;;;;;;4994969;28;20060;-65
2024/02/20 10:13:12;;;;;;;26.25;6.57;;;7.40;99.90;;;;;;4995631;28;20054;-65
2024/02/20 10:16:03;;;;;;;31.77;7.27;;;7.50;99.90;;;;;;4999314;28;20050;-66
2024/02/20 10:18:57;;;;;;;26.20;6.35;;;7.60;99.90;;;;;;4994189;28;20289;-66
2024/02/20 10:21:50;;;;;;;26.90;6.95;;;7.50;99.90;;;;;;4996939;28;20041;-66
2024/02/20 10:24:37;;;;;;;25.23;6.60;;;7.60;99.90;;;;;;4998353;28;20080;-66
2024/02/20 10:27:23;;;;;;;35.60;7.78;;;7.50;99.90;;;;;;5002075;28;20064;-66
2024/02/20 10:30:11;;;;;;;41.27;6.67;;;7.50;99.90;;;;;;4997706;28;20065;-66
2024/02/20 10:32:57;;;;;;;18.70;6.75;;;7.50;99.90;;;;;;4998320;28;20084;-66
2024/02/20 10:35:44;;;;;;;25.73;6.43;;;7.60;99.90;;;;;;4996624;28;20053;-66
2024/02/20 10:38:30;;;;;;;37.28;7.10;;;7.60;99.90;;;;;;4995280;28;20033;-66
2024/02/20 10:41:22;;;;;;;28.15;6.57;;;7.60;99.90;;;;;;4995117;28;20161;-66
2024/02/20 10:44:08;;;;;;;22.30;6.80;;;7.60;99.90;;;;;;4994422;28;20030;-66
2024/02/20 10:46:57;;;;;;;34.35;7.03;;;7.50;99.90;;;;;;5001398;28;20559;-66
2024/02/20 10:49:43;;;;;;;40.85;7.07;;;7.50;99.90;;;;;;4997721;28;20620;-65
2024/02/20 10:52:29;;;;;;;26.45;6.95;;;7.50;99.90;;;;;;4995434;28;20029;-65
2024/02/20 10:55:16;;;;;;;29.40;7.30;;;7.60;99.90;;;;;;4997031;28;20069;-66
2024/02/20 10:58:02;;;;;;;28.77;7.47;;;7.50;99.90;;;;;;4997707;28;20072;-66
2024/02/20 11:00:49;;;;;;;31.07;7.23;;;7.60;99.90;;;;;;4995586;28;20046;-65
2024/02/20 11:03:37;;;;;;;28.88;7.43;;;7.60;99.90;;;;;;4999359;28;20037;-66
2024/02/20 11:06:23;;;;;;;27.85;8.38;;;7.50;99.90;;;;;;4998785;28;20050;-66
2024/02/20 11:09:13;;;;;;;29.08;7.00;;;7.50;99.90;;;;;;4998470;28;20503;-66
2024/02/20 11:12:08;;;;;;;28.42;7.85;;;7.40;99.90;;;;;;5001206;28;20457;-66
2024/02/20 11:15:12;;;;;;;33.55;9.63;;;7.40;99.90;;;;;;4998034;28;20041;-66
2024/02/20 11:17:57;;;;;;;31.45;8.23;;;7.40;99.90;;;;;;5001008;28;21125;-66
2024/02/20 11:20:44;;;;;;;27.75;8.27;;;7.50;99.90;;;;;;5000068;28;20033;-66
2024/02/20 11:23:30;;;;;;;29.33;8.18;;;7.50;99.90;;;;;;4999386;28;20041;-66
2024/02/20 11:26:16;;;;;;;50.78;11.02;;;7.50;99.90;;;;;;4996409;28;20472;-66
2024/02/20 11:29:02;;;;;;;30.63;8.45;;;7.40;99.90;;;;;;4996843;28;20572;-66
2024/02/20 11:31:49;;;;;;;33.63;10.27;;;7.40;99.90;;;;;;4987369;28;20035;-66
2024/02/20 11:34:35;;;;;;;;;;;7.50;99.90;;;;;;4978272;28;20114;-64
2024/02/20 11:37:21;;;;;;;31.83;8.13;;;7.60;99.90;;;;;;4982223;28;19910;-66
2024/02/20 11:40:07;;;;;;;30.88;8.20;;;7.60;99.90;;;;;;4981029;28;20098;-67
2024/02/20 11:42:55;;;;;;;33.83;9.05;;;7.70;99.90;;;;;;4979989;28;20556;-66
2024/02/20 11:45:41;;;;;;;41.50;8.55;;;7.60;99.90;;;;;;4980704;28;20026;-67
2024/02/20 11:48:27;;;;;;;25.35;7.35;;;7.60;99.90;;;;;;4980585;28;20482;-66
2024/02/20 11:51:17;;;;;;;29.95;7.03;;;7.70;99.90;;;;;;4980932;28;20026;-66
2024/02/20 11:54:05;;;;;;;28.08;6.82;;;7.80;99.90;;;;;;4980893;28;20030;-66
2024/02/20 11:56:52;;;;;;;30.27;6.82;;;7.80;99.90;;;;;;4980534;28;20030;-67
2024/02/20 11:59:38;;;;;;;28.88;7.88;;;7.80;99.90;;;;;;4977651;28;20520;-65
2024/02/20 12:02:24;;;;;;;20.47;6.63;;;7.70;99.90;;;;;;4991704;28;20100;-65
2024/02/20 12:05:10;;;;;;;31.00;7.95;;;7.80;99.90;;;;;;4997413;28;20041;-66
2024/02/20 12:07:56;;;;;;;27.67;7.38;;;7.80;99.90;;;;;;4995048;28;20669;-67
2024/02/20 12:10:43;;;;;;;29.40;7.55;;;7.70;99.90;;;;;;4991632;28;20445;-68
2024/02/20 12:13:29;;;;;;;30.00;8.05;;;7.70;99.90;;;;;;4990129;28;20137;-69
2024/02/20 12:16:25;;;;;;;28.20;8.18;;;7.60;99.90;;;;;;4999029;28;20030;-69
2024/02/20 12:19:19;;;;;;;25.98;6.35;;;7.50;99.90;;;;;;4998345;28;20034;-69
2024/02/20 12:22:05;;;;;;;31.83;8.07;;;7.50;99.90;;;;;;5005594;28;20029;-68
2024/02/20 12:24:51;;;;;;;24.70;7.25;;;7.50;99.90;;;;;;4998315;28;20073;-66
2024/02/20 12:27:37;;;;;;;26.02;8.52;;;7.60;99.90;;;;;;5001691;28;20543;-66
2024/02/20 12:30:23;;;;;;;33.78;8.57;;;7.50;99.90;;;;;;4992820;28;20038;-67
2024/02/20 12:33:13;;;;;;;40.60;8.50;;;7.60;99.90;;;;;;5002060;28;20701;-66
2024/02/20 12:35:59;;;;;;;33.60;7.90;;;7.60;99.90;;;;;;5004872;28;20029;-66
2024/02/20 12:38:45;;;;;;;38.80;7.65;;;7.60;99.90;;;;;;4993722;28;20690;-67
2024/02/20 12:41:31;;;;;;;28.42;7.93;;;7.60;99.90;;;;;;5003585;28;20034;-67
2024/02/20 12:44:17;;;;;;;26.63;7.47;;;7.60;99.90;;;;;;4998481;28;20038;-67
2024/02/20 12:47:03;;;;;;;27.05;7.28;;;7.70;99.90;;;;;;4999687;28;20064;-67
2024/02/20 12:49:49;;;;;;;27.63;6.78;;;7.80;99.90;;;;;;4998201;28;20125;-67
2024/02/20 12:52:37;;;;;;;35.25;7.90;;;7.70;99.90;;;;;;5000615;28;20042;-67
2024/02/20 12:55:23;;;;;;;36.38;7.78;;;7.70;99.90;;;;;;4997707;28;20038;-67
2024/02/20 12:58:10;;;;;;;27.90;7.78;;;7.70;99.90;;;;;;5003171;28;20109;-66
2024/02/20 13:00:58;;;;;;;27.75;7.80;;;7.80;99.90;;;;;;5002802;28;20102;-66
2024/02/20 13:03:45;;;;;;;30.35;8.02;;;7.90;99.90;;;;;;5000993;28;20073;-65
2024/02/20 13:06:31;;;;;;;33.03;7.07;;;7.90;99.90;;;;;;5003141;28;20257;-66
2024/02/20 13:09:16;;;;;;;35.17;7.65;;;7.90;99.90;;;;;;4998472;28;20038;-66
2024/02/20 13:12:05;;;;;;;31.00;6.90;;;7.90;99.90;;;;;;5002919;28;20052;-66
2024/02/20 13:14:51;;;;;;;34.63;7.28;;;8.00;99.90;;;;;;5000881;28;20548;-66
2024/02/20 13:17:36;;;;;;;36.38;7.15;;;7.80;99.90;;;;;;5016816;28;20601;-66
2024/02/20 13:20:26;;;;;;;23.63;6.72;;;7.80;99.90;;;;;;5000430;28;20034;-66
2024/02/20 13:23:12;;;;;;;35.92;6.72;;;7.80;99.90;;;;;;5003285;28;20033;-66
2024/02/20 13:25:58;;;;;;;30.63;8.63;;;7.70;99.90;;;;;;5003566;28;20048;-66
2024/02/20 13:28:44;;;;;;;25.67;6.37;;;7.60;99.90;;;;;;4997645;28;20437;-67
2024/02/20 13:31:30;;;;;;;26.95;6.63;;;7.70;99.90;;;;;;5002264;28;20285;-66
2024/02/20 13:34:16;;;;;;;33.50;7.70;;;7.80;99.90;;;;;;5000517;28;20034;-66
2024/02/20 13:37:03;;;;;;;23.40;6.00;;;7.80;99.90;;;;;;5002792;28;20046;-66
2024/02/20 13:39:49;;;;;;;28.95;6.47;;;7.80;99.90;;;;;;5000848;28;20041;-65
2024/02/20 13:42:35;;;;;;;23.55;5.70;;;7.80;99.90;;;;;;5001325;28;20045;-65
2024/02/20 13:45:21;;;;;;;27.60;6.00;;;7.90;99.90;;;;;;4999303;28;20092;-66
2024/02/20 13:48:13;;;;;;;31.13;6.72;;;7.90;99.90;;;;;;4999239;28;20540;-65
2024/02/20 13:51:01;;;;;;;20.23;5.22;;;7.90;99.90;;;;;;5002332;28;20033;-65
2024/02/20 13:53:47;;;;;;;36.00;6.10;;;7.80;99.90;;;;;;4999409;28;20480;-66
2024/02/20 13:56:33;;;;;;;29.80;5.97;;;7.70;99.90;;;;;;5000804;28;20533;-65
2024/02/20 13:59:19;;;;;;;24.20;5.43;;;7.80;99.90;;;;;;4997091;28;20030;-65
2024/02/20 14:02:08;;;;;;;25.83;5.72;;;7.80;99.90;;;;;;5001732;28;20042;-69
2024/02/20 14:04:54;;;;;;;26.58;5.38;;;7.70;99.90;;;;;;4999889;28;20477;-67
2024/02/20 14:07:40;;;;;;;30.05;6.03;;;7.70;99.90;;;;;;5000113;28;20045;-67
2024/02/20 14:10:26;;;;;;;24.67;4.68;;;7.70;99.90;;;;;;5009781;28;20049;-66
2024/02/20 14:13:12;;;;;;;17.35;5.60;;;7.70;99.90;;;;;;5001710;28;20045;-67
2024/02/20 14:15:58;;;;;;;30.03;5.23;;;7.70;99.90;;;;;;5002560;28;20127;-68
2024/02/20 14:18:44;;;;;;;20.05;4.35;;;7.60;99.90;;;;;;4999064;28;20056;-65
2024/02/20 14:21:30;;;;;;;26.05;5.32;;;7.60;99.90;;;;;;5000777;28;20034;-68
2024/02/20 14:24:15;;;;;;;25.35;5.00;;;7.60;99.90;;;;;;4995134;28;20084;-68
2024/02/20 14:27:01;;;;;;;17.95;5.00;;;7.60;99.90;;;;;;4999287;28;20472;-67